sensor_id;sensor_type;location;lat;lon;timestamp;temperature;humidity
46037;DHT22;31769;49.304;8.428;2023-08-12T00:01:47;22.00;99.90
46037;DHT22;31769;49.304;8.428;2023-08-12T00:04:47;22.00;99.90
46037;DHT22;31769;49.304;8.428;2023-08-12T00:07:48;22.00;99.90
46037;DHT22;31769;49.304;8.428;2023-08-12T00:10:49;21.80;99.90
46037;DHT22;31769;49.304;8.428;2023-08-12T00:13:50;21.70;99.90
46037;DHT22;31769;49.304;8.428;2023-08-12T00:16:50;21.50;99.90
46037;DHT22;31769;49.304;8.428;2023-08-12T00:19:51;21.50;99.90
46037;DHT22;31769;49.304;8.428;2023-08-12T00:22:52;21.50;99.90
46037;DHT22;31769;49.304;8.428;2023-08-12T00:25:52;21.60;99.90
46037;DHT22;31769;49.304;8.428;2023-08-12T00:28:53;21.60;99.90
46037;DHT22;31769;49.304;8.428;2023-08-12T00:31:54;21.60;99.90
46037;DHT22;31769;49.304;8.428;2023-08-12T00:34:56;21.70;99.90
46037;DHT22;31769;49.304;8.428;2023-08-12T00:37:57;21.80;99.90
46037;DHT22;31769;49.304;8.428;2023-08-12T00:40:58;21.70;99.90
46037;DHT22;31769;49.304;8.428;2023-08-12T00:43:59;21.80;99.90
46037;DHT22;31769;49.304;8.428;2023-08-12T00:46:59;21.70;99.90
46037;DHT22;31769;49.304;8.428;2023-08-12T00:50:00;21.70;99.90
46037;DHT22;31769;49.304;8.428;2023-08-12T00:53:01;21.70;99.90
46037;DHT22;31769;49.304;8.428;2023-08-12T00:56:02;21.60;99.90
46037;DHT22;31769;49.304;8.428;2023-08-12T00:59:05;21.60;99.90
46037;DHT22;31769;49.304;8.428;2023-08-12T01:02:07;21.60;99.90
46037;DHT22;31769;49.304;8.428;2023-08-12T01:05:08;21.50;99.90
46037;DHT22;31769;49.304;8.428;2023-08-12T01:08:09;21.50;99.90
46037;DHT22;31769;49.304;8.428;2023-08-12T01:11:24;21.50;99.90
46037;DHT22;31769;49.304;8.428;2023-08-12T01:17:44;21.30;99.90
46037;DHT22;31769;49.304;8.428;2023-08-12T01:20:47;21.20;99.90
46037;DHT22;31769;49.304;8.428;2023-08-12T01:23:48;21.00;99.90
46037;DHT22;31769;49.304;8.428;2023-08-12T01:26:48;21.00;99.90
46037;DHT22;31769;49.304;8.428;2023-08-12T01:29:51;21.00;99.90
46037;DHT22;31769;49.304;8.428;2023-08-12T01:32:56;20.90;99.90
46037;DHT22;31769;49.304;8.428;2023-08-12T01:36:07;20.90;99.90
46037;DHT22;31769;49.304;8.428;2023-08-12T01:39:10;20.90;99.90
46037;DHT22;31769;49.304;8.428;2023-08-12T01:42:14;20.90;99.90
46037;DHT22;31769;49.304;8.428;2023-08-12T01:45:15;21.00;99.90
46037;DHT22;31769;49.304;8.428;2023-08-12T01:48:16;20.90;99.90
46037;DHT22;31769;49.304;8.428;2023-08-12T01:51:16;20.80;99.90
46037;DHT22;31769;49.304;8.428;2023-08-12T01:54:17;20.80;99.90
46037;DHT22;31769;49.304;8.428;2023-08-12T01:57:18;20.80;99.90
46037;DHT22;31769;49.304;8.428;2023-08-12T02:00:19;20.80;99.90
46037;DHT22;31769;49.304;8.428;2023-08-12T02:03:19;20.80;99.90
46037;DHT22;31769;49.304;8.428;2023-08-12T02:06:20;20.90;99.90
46037;DHT22;31769;49.304;8.428;2023-08-12T02:09:21;21.00;99.90
46037;DHT22;31769;49.304;8.428;2023-08-12T02:12:22;20.80;99.90
46037;DHT22;31769;49.304;8.428;2023-08-12T02:15:23;20.80;99.90
46037;DHT22;31769;49.304;8.428;2023-08-12T02:18:24;20.90;99.90
46037;DHT22;31769;49.304;8.428;2023-08-12T02:21:25;20.80;99.90
46037;DHT22;31769;49.304;8.428;2023-08-12T02:24:26;20.80;99.90
46037;DHT22;31769;49.304;8.428;2023-08-12T02:27:26;20.80;99.90
46037;DHT22;31769;49.304;8.428;2023-08-12T02:30:29;20.90;99.90
46037;DHT22;31769;49.304;8.428;2023-08-12T02:33:30;20.90;99.90
46037;DHT22;31769;49.304;8.428;2023-08-12T02:36:31;21.00;99.90
46037;DHT22;31769;49.304;8.428;2023-08-12T02:39:32;21.20;99.90
46037;DHT22;31769;49.304;8.428;2023-08-12T02:42:32;21.10;99.90
46037;DHT22;31769;49.304;8.428;2023-08-12T02:45:33;21.00;99.90
46037;DHT22;31769;49.304;8.428;2023-08-12T02:48:35;20.90;99.90
46037;DHT22;31769;49.304;8.428;2023-08-12T02:51:36;20.90;99.90
46037;DHT22;31769;49.304;8.428;2023-08-12T02:54:37;21.10;99.90
46037;DHT22;31769;49.304;8.428;2023-08-12T02:57:38;21.00;99.90
46037;DHT22;31769;49.304;8.428;2023-08-12T03:00:42;21.10;99.90
46037;DHT22;31769;49.304;8.428;2023-08-12T03:03:44;21.10;99.90
46037;DHT22;31769;49.304;8.428;2023-08-12T03:06:45;21.10;99.90
46037;DHT22;31769;49.304;8.428;2023-08-12T03:09:46;21.10;99.90
46037;DHT22;31769;49.304;8.428;2023-08-12T03:12:46;21.20;99.90
46037;DHT22;31769;49.304;8.428;2023-08-12T03:15:47;21.20;99.90
46037;DHT22;31769;49.304;8.428;2023-08-12T03:18:48;21.10;99.90
46037;DHT22;31769;49.304;8.428;2023-08-12T03:21:49;21.20;99.90
46037;DHT22;31769;49.304;8.428;2023-08-12T03:24:50;21.10;99.90
46037;DHT22;31769;49.304;8.428;2023-08-12T03:27:51;21.10;99.90
46037;DHT22;31769;49.304;8.428;2023-08-12T03:30:52;21.10;99.90
46037;DHT22;31769;49.304;8.428;2023-08-12T03:33:56;21.10;99.90
46037;DHT22;31769;49.304;8.428;2023-08-12T03:36:57;21.10;99.90
46037;DHT22;31769;49.304;8.428;2023-08-12T03:39:58;21.40;99.90
46037;DHT22;31769;49.304;8.428;2023-08-12T03:42:58;21.10;99.90
46037;DHT22;31769;49.304;8.428;2023-08-12T03:46:00;21.20;99.90
46037;DHT22;31769;49.304;8.428;2023-08-12T03:49:01;20.90;99.90
46037;DHT22;31769;49.304;8.428;2023-08-12T03:52:03;21.20;99.90
46037;DHT22;31769;49.304;8.428;2023-08-12T03:55:05;21.10;99.90
46037;DHT22;31769;49.304;8.428;2023-08-12T03:58:06;21.20;99.90
46037;DHT22;31769;49.304;8.428;2023-08-12T04:01:07;21.20;99.90
46037;DHT22;31769;49.304;8.428;2023-08-12T04:04:08;21.40;99.90
46037;DHT22;31769;49.304;8.428;2023-08-12T04:07:09;21.20;99.90
46037;DHT22;31769;49.304;8.428;2023-08-12T04:10:10;21.20;99.90
46037;DHT22;31769;49.304;8.428;2023-08-12T04:13:11;21.20;99.90
46037;DHT22;31769;49.304;8.428;2023-08-12T04:16:12;21.10;99.90
46037;DHT22;31769;49.304;8.428;2023-08-12T04:19:13;21.10;99.90
46037;DHT22;31769;49.304;8.428;2023-08-12T04:22:13;21.20;99.90
46037;DHT22;31769;49.304;8.428;2023-08-12T04:25:14;21.20;99.90
46037;DHT22;31769;49.304;8.428;2023-08-12T04:28:15;21.20;99.90
46037;DHT22;31769;49.304;8.428;2023-08-12T04:31:16;21.10;99.90
46037;DHT22;31769;49.304;8.428;2023-08-12T04:34:17;21.20;99.90
46037;DHT22;31769;49.304;8.428;2023-08-12T04:37:18;21.20;99.90
46037;DHT22;31769;49.304;8.428;2023-08-12T04:40:19;21.10;99.90
46037;DHT22;31769;49.304;8.428;2023-08-12T04:43:21;21.20;99.90
46037;DHT22;31769;49.304;8.428;2023-08-12T04:46:22;21.20;99.90
46037;DHT22;31769;49.304;8.428;2023-08-12T04:49:23;21.20;99.90
46037;DHT22;31769;49.304;8.428;2023-08-12T04:52:25;21.20;99.90
46037;DHT22;31769;49.304;8.428;2023-08-12T04:55:25;21.20;99.90
46037;DHT22;31769;49.304;8.428;2023-08-12T04:58:27;21.20;99.90
46037;DHT22;31769;49.304;8.428;2023-08-12T05:01:27;21.30;99.90
46037;DHT22;31769;49.304;8.428;2023-08-12T05:04:29;21.30;99.90
46037;DHT22;31769;49.304;8.428;2023-08-12T05:07:30;21.40;99.90
46037;DHT22;31769;49.304;8.428;2023-08-12T05:10:32;21.50;99.90
46037;DHT22;31769;49.304;8.428;2023-08-12T05:13:33;21.50;99.90
46037;DHT22;31769;49.304;8.428;2023-08-12T05:16:35;21.50;99.90
46037;DHT22;31769;49.304;8.428;2023-08-12T05:19:35;21.60;99.90
46037;DHT22;31769;49.304;8.428;2023-08-12T05:22:36;21.50;99.90
46037;DHT22;31769;49.304;8.428;2023-08-12T05:25:39;21.50;99.90
46037;DHT22;31769;49.304;8.428;2023-08-12T05:28:39;21.50;99.90
46037;DHT22;31769;49.304;8.428;2023-08-12T05:31:40;21.60;99.90
46037;DHT22;31769;49.304;8.428;2023-08-12T05:34:41;21.60;99.90
46037;DHT22;31769;49.304;8.428;2023-08-12T05:37:42;21.60;99.90
46037;DHT22;31769;49.304;8.428;2023-08-12T05:40:42;21.60;99.90
46037;DHT22;31769;49.304;8.428;2023-08-12T05:43:43;21.70;99.90
46037;DHT22;31769;49.304;8.428;2023-08-12T05:46:44;21.80;99.90
46037;DHT22;31769;49.304;8.428;2023-08-12T05:49:44;21.80;99.90
46037;DHT22;31769;49.304;8.428;2023-08-12T05:52:45;21.90;99.90
46037;DHT22;31769;49.304;8.428;2023-08-12T05:55:46;22.00;99.90
46037;DHT22;31769;49.304;8.428;2023-08-12T05:58:47;22.00;99.90
46037;DHT22;31769;49.304;8.428;2023-08-12T06:01:47;22.00;99.90
46037;DHT22;31769;49.304;8.428;2023-08-12T06:04:48;22.00;99.90
46037;DHT22;31769;49.304;8.428;2023-08-12T06:07:49;22.10;99.90
46037;DHT22;31769;49.304;8.428;2023-08-12T06:10:49;22.10;99.90
46037;DHT22;31769;49.304;8.428;2023-08-12T06:13:50;22.10;99.90
46037;DHT22;31769;49.304;8.428;2023-08-12T06:16:51;22.10;99.90
46037;DHT22;31769;49.304;8.428;2023-08-12T06:19:51;22.00;99.90
46037;DHT22;31769;49.304;8.428;2023-08-12T06:22:52;22.10;99.90
46037;DHT22;31769;49.304;8.428;2023-08-12T06:25:53;22.10;99.90
46037;DHT22;31769;49.304;8.428;2023-08-12T06:28:53;22.30;99.90
46037;DHT22;31769;49.304;8.428;2023-08-12T06:31:54;22.50;99.90
46037;DHT22;31769;49.304;8.428;2023-08-12T06:34:55;22.90;99.90
46037;DHT22;31769;49.304;8.428;2023-08-12T06:37:56;23.30;99.90
46037;DHT22;31769;49.304;8.428;2023-08-12T06:40:56;23.30;99.90
46037;DHT22;31769;49.304;8.428;2023-08-12T06:43:57;23.40;99.90
46037;DHT22;31769;49.304;8.428;2023-08-12T06:46:58;23.40;99.90
46037;DHT22;31769;49.304;8.428;2023-08-12T06:49:58;23.30;99.90
46037;DHT22;31769;49.304;8.428;2023-08-12T06:52:59;23.20;99.90
46037;DHT22;31769;49.304;8.428;2023-08-12T06:56:00;23.30;99.90
46037;DHT22;31769;49.304;8.428;2023-08-12T06:59:01;23.20;99.90
46037;DHT22;31769;49.304;8.428;2023-08-12T07:02:01;22.90;99.90
46037;DHT22;31769;49.304;8.428;2023-08-12T07:05:02;22.90;99.90
46037;DHT22;31769;49.304;8.428;2023-08-12T07:08:03;23.00;99.90
46037;DHT22;31769;49.304;8.428;2023-08-12T07:11:04;23.10;99.90
46037;DHT22;31769;49.304;8.428;2023-08-12T07:14:05;23.30;99.90
46037;DHT22;31769;49.304;8.428;2023-08-12T07:17:06;23.40;99.90
46037;DHT22;31769;49.304;8.428;2023-08-12T07:20:07;23.40;99.90
46037;DHT22;31769;49.304;8.428;2023-08-12T07:23:08;23.60;99.90
46037;DHT22;31769;49.304;8.428;2023-08-12T07:26:09;23.70;99.90
46037;DHT22;31769;49.304;8.428;2023-08-12T07:29:09;23.90;99.90
46037;DHT22;31769;49.304;8.428;2023-08-12T07:32:10;24.00;99.90
46037;DHT22;31769;49.304;8.428;2023-08-12T07:35:11;24.30;99.90
46037;DHT22;31769;49.304;8.428;2023-08-12T07:38:12;24.30;99.90
46037;DHT22;31769;49.304;8.428;2023-08-12T07:41:12;24.50;99.90
46037;DHT22;31769;49.304;8.428;2023-08-12T07:44:13;24.50;99.90
46037;DHT22;31769;49.304;8.428;2023-08-12T07:47:14;24.60;99.90
46037;DHT22;31769;49.304;8.428;2023-08-12T07:50:15;24.80;99.90
46037;DHT22;31769;49.304;8.428;2023-08-12T07:53:16;25.10;99.90
46037;DHT22;31769;49.304;8.428;2023-08-12T07:56:17;25.30;99.90
46037;DHT22;31769;49.304;8.428;2023-08-12T07:59:18;25.50;99.90
46037;DHT22;31769;49.304;8.428;2023-08-12T08:02:18;25.60;99.90
46037;DHT22;31769;49.304;8.428;2023-08-12T08:05:19;25.70;99.90
46037;DHT22;31769;49.304;8.428;2023-08-12T08:08:20;25.50;99.90
46037;DHT22;31769;49.304;8.428;2023-08-12T08:11:21;25.40;99.90
46037;DHT22;31769;49.304;8.428;2023-08-12T08:14:22;25.50;99.90
46037;DHT22;31769;49.304;8.428;2023-08-12T08:17:22;25.80;99.90
46037;DHT22;31769;49.304;8.428;2023-08-12T08:20:23;25.80;99.90
46037;DHT22;31769;49.304;8.428;2023-08-12T08:23:24;25.60;99.90
46037;DHT22;31769;49.304;8.428;2023-08-12T08:26:25;25.70;99.90
46037;DHT22;31769;49.304;8.428;2023-08-12T08:29:27;25.80;99.90
46037;DHT22;31769;49.304;8.428;2023-08-12T08:32:28;25.80;99.90
46037;DHT22;31769;49.304;8.428;2023-08-12T08:35:29;26.10;99.90
46037;DHT22;31769;49.304;8.428;2023-08-12T08:38:29;26.30;99.90
46037;DHT22;31769;49.304;8.428;2023-08-12T08:41:31;26.10;99.90
46037;DHT22;31769;49.304;8.428;2023-08-12T08:44:33;26.10;99.90
46037;DHT22;31769;49.304;8.428;2023-08-12T08:47:34;26.30;99.90
46037;DHT22;31769;49.304;8.428;2023-08-12T08:50:36;26.30;99.90
46037;DHT22;31769;49.304;8.428;2023-08-12T08:53:38;26.40;99.90
46037;DHT22;31769;49.304;8.428;2023-08-12T08:56:39;26.40;99.90
46037;DHT22;31769;49.304;8.428;2023-08-12T08:59:39;26.80;99.90
46037;DHT22;31769;49.304;8.428;2023-08-12T09:02:41;27.10;99.90
46037;DHT22;31769;49.304;8.428;2023-08-12T09:05:43;27.20;99.90
46037;DHT22;31769;49.304;8.428;2023-08-12T09:08:45;27.40;99.90
46037;DHT22;31769;49.304;8.428;2023-08-12T09:11:48;27.60;99.90
46037;DHT22;31769;49.304;8.428;2023-08-12T09:14:49;27.40;99.90
46037;DHT22;31769;49.304;8.428;2023-08-12T09:17:50;27.40;99.90
46037;DHT22;31769;49.304;8.428;2023-08-12T09:20:51;27.70;99.90
46037;DHT22;31769;49.304;8.428;2023-08-12T09:23:52;28.20;99.90
46037;DHT22;31769;49.304;8.428;2023-08-12T09:26:56;28.30;99.90
46037;DHT22;31769;49.304;8.428;2023-08-12T09:29:57;28.50;99.90
46037;DHT22;31769;49.304;8.428;2023-08-12T09:33:02;28.60;99.90
46037;DHT22;31769;49.304;8.428;2023-08-12T09:36:04;28.20;99.90
46037;DHT22;31769;49.304;8.428;2023-08-12T09:39:08;28.50;99.90
46037;DHT22;31769;49.304;8.428;2023-08-12T09:42:09;28.80;99.90
46037;DHT22;31769;49.304;8.428;2023-08-12T09:45:11;29.10;99.90
46037;DHT22;31769;49.304;8.428;2023-08-12T09:48:11;29.20;99.90
46037;DHT22;31769;49.304;8.428;2023-08-12T09:51:12;29.30;99.90
46037;DHT22;31769;49.304;8.428;2023-08-12T09:54:13;29.30;99.90
46037;DHT22;31769;49.304;8.428;2023-08-12T09:57:16;29.40;99.90
46037;DHT22;31769;49.304;8.428;2023-08-12T10:00:20;29.30;99.90
46037;DHT22;31769;49.304;8.428;2023-08-12T10:03:22;29.00;99.90
46037;DHT22;31769;49.304;8.428;2023-08-12T10:06:23;29.20;99.90
46037;DHT22;31769;49.304;8.428;2023-08-12T10:09:24;29.30;99.90
46037;DHT22;31769;49.304;8.428;2023-08-12T10:12:26;29.00;99.90
46037;DHT22;31769;49.304;8.428;2023-08-12T10:15:27;28.70;99.90
46037;DHT22;31769;49.304;8.428;2023-08-12T10:18:28;28.40;99.90
46037;DHT22;31769;49.304;8.428;2023-08-12T10:21:32;28.30;99.90
46037;DHT22;31769;49.304;8.428;2023-08-12T10:24:34;28.60;99.90
46037;DHT22;31769;49.304;8.428;2023-08-12T10:27:36;28.90;99.90
46037;DHT22;31769;49.304;8.428;2023-08-12T10:30:39;28.30;99.90
46037;DHT22;31769;49.304;8.428;2023-08-12T10:33:41;28.10;99.90
46037;DHT22;31769;49.304;8.428;2023-08-12T10:36:44;27.80;99.90
46037;DHT22;31769;49.304;8.428;2023-08-12T10:39:45;27.90;99.90
46037;DHT22;31769;49.304;8.428;2023-08-12T10:42:47;28.40;99.90
46037;DHT22;31769;49.304;8.428;2023-08-12T10:45:51;28.90;99.90
46037;DHT22;31769;49.304;8.428;2023-08-12T10:48:59;29.20;99.90
46037;DHT22;31769;49.304;8.428;2023-08-12T10:52:03;28.70;99.90
46037;DHT22;31769;49.304;8.428;2023-08-12T10:55:27;28.10;99.90
46037;DHT22;31769;49.304;8.428;2023-08-12T10:58:44;27.50;99.90
46037;DHT22;31769;49.304;8.428;2023-08-12T11:01:46;27.10;99.90
46037;DHT22;31769;49.304;8.428;2023-08-12T11:04:52;26.60;99.90
46037;DHT22;31769;49.304;8.428;2023-08-12T11:08:00;26.10;99.90
46037;DHT22;31769;49.304;8.428;2023-08-12T11:11:19;25.80;99.90
46037;DHT22;31769;49.304;8.428;2023-08-12T11:14:23;25.00;99.90
46037;DHT22;31769;49.304;8.428;2023-08-12T11:17:36;23.50;99.90
46037;DHT22;31769;49.304;8.428;2023-08-12T11:20:38;22.20;99.90
46037;DHT22;31769;49.304;8.428;2023-08-12T11:23:39;21.50;99.90
46037;DHT22;31769;49.304;8.428;2023-08-12T11:26:41;21.20;99.90
46037;DHT22;31769;49.304;8.428;2023-08-12T11:29:42;21.00;99.90
46037;DHT22;31769;49.304;8.428;2023-08-12T11:32:48;20.80;99.90
46037;DHT22;31769;49.304;8.428;2023-08-12T11:35:49;20.70;99.90
46037;DHT22;31769;49.304;8.428;2023-08-12T11:38:50;20.60;99.90
46037;DHT22;31769;49.304;8.428;2023-08-12T11:41:51;20.60;99.90
46037;DHT22;31769;49.304;8.428;2023-08-12T11:44:52;20.70;99.90
46037;DHT22;31769;49.304;8.428;2023-08-12T11:47:53;20.90;99.90
46037;DHT22;31769;49.304;8.428;2023-08-12T11:50:55;21.20;99.90
46037;DHT22;31769;49.304;8.428;2023-08-12T11:53:55;21.50;99.90
46037;DHT22;31769;49.304;8.428;2023-08-12T11:56:57;21.80;99.90
46037;DHT22;31769;49.304;8.428;2023-08-12T11:59:59;22.10;99.90
46037;DHT22;31769;49.304;8.428;2023-08-12T12:03:00;22.60;99.90
46037;DHT22;31769;49.304;8.428;2023-08-12T12:06:01;23.40;99.90
46037;DHT22;31769;49.304;8.428;2023-08-12T12:09:07;24.40;99.90
46037;DHT22;31769;49.304;8.428;2023-08-12T12:12:12;24.90;99.90
46037;DHT22;31769;49.304;8.428;2023-08-12T12:15:13;25.00;99.90
46037;DHT22;31769;49.304;8.428;2023-08-12T12:18:17;25.30;99.90
46037;DHT22;31769;49.304;8.428;2023-08-12T12:21:21;25.60;99.90
46037;DHT22;31769;49.304;8.428;2023-08-12T12:24:29;26.10;99.90
46037;DHT22;31769;49.304;8.428;2023-08-12T12:27:30;27.00;99.90
46037;DHT22;31769;49.304;8.428;2023-08-12T12:30:31;27.60;99.90
46037;DHT22;31769;49.304;8.428;2023-08-12T12:33:32;28.20;99.90
46037;DHT22;31769;49.304;8.428;2023-08-12T12:36:34;28.10;99.90
46037;DHT22;31769;49.304;8.428;2023-08-12T12:39:36;27.70;99.90
46037;DHT22;31769;49.304;8.428;2023-08-12T12:42:37;26.90;99.90
46037;DHT22;31769;49.304;8.428;2023-08-12T12:45:39;26.30;99.90
46037;DHT22;31769;49.304;8.428;2023-08-12T12:48:39;25.80;99.90
46037;DHT22;31769;49.304;8.428;2023-08-12T12:51:41;25.50;99.90
46037;DHT22;31769;49.304;8.428;2023-08-12T12:54:41;26.30;99.90
46037;DHT22;31769;49.304;8.428;2023-08-12T12:57:42;27.10;99.90
46037;DHT22;31769;49.304;8.428;2023-08-12T13:00:43;27.20;99.90
46037;DHT22;31769;49.304;8.428;2023-08-12T13:03:44;28.00;99.90
46037;DHT22;31769;49.304;8.428;2023-08-12T13:06:44;29.70;99.90
46037;DHT22;31769;49.304;8.428;2023-08-12T13:09:45;30.40;99.90
46037;DHT22;31769;49.304;8.428;2023-08-12T13:12:46;29.60;99.90
46037;DHT22;31769;49.304;8.428;2023-08-12T13:15:47;28.70;99.90
46037;DHT22;31769;49.304;8.428;2023-08-12T13:18:48;27.90;99.90
46037;DHT22;31769;49.304;8.428;2023-08-12T13:21:48;27.60;99.90
46037;DHT22;31769;49.304;8.428;2023-08-12T13:24:49;27.50;99.90
46037;DHT22;31769;49.304;8.428;2023-08-12T13:27:49;27.40;99.90
46037;DHT22;31769;49.304;8.428;2023-08-12T13:30:50;27.50;99.90
46037;DHT22;31769;49.304;8.428;2023-08-12T13:33:51;27.70;99.90
46037;DHT22;31769;49.304;8.428;2023-08-12T13:36:52;28.00;99.90
46037;DHT22;31769;49.304;8.428;2023-08-12T13:39:53;28.00;99.90
46037;DHT22;31769;49.304;8.428;2023-08-12T13:42:54;28.20;99.90
46037;DHT22;31769;49.304;8.428;2023-08-12T13:45:54;28.20;99.90
46037;DHT22;31769;49.304;8.428;2023-08-12T13:48:55;28.10;99.90
46037;DHT22;31769;49.304;8.428;2023-08-12T13:51:56;27.50;99.90
46037;DHT22;31769;49.304;8.428;2023-08-12T13:54:56;26.90;99.90
46037;DHT22;31769;49.304;8.428;2023-08-12T13:57:57;26.70;99.90
46037;DHT22;31769;49.304;8.428;2023-08-12T14:00:58;26.60;99.90
46037;DHT22;31769;49.304;8.428;2023-08-12T14:03:59;26.70;99.90
46037;DHT22;31769;49.304;8.428;2023-08-12T14:06:59;26.70;99.90
46037;DHT22;31769;49.304;8.428;2023-08-12T14:10:00;26.60;99.90
46037;DHT22;31769;49.304;8.428;2023-08-12T14:13:01;26.50;99.90
46037;DHT22;31769;49.304;8.428;2023-08-12T14:16:01;26.10;99.90
46037;DHT22;31769;49.304;8.428;2023-08-12T14:19:02;26.10;99.90
46037;DHT22;31769;49.304;8.428;2023-08-12T14:22:03;26.10;99.90
46037;DHT22;31769;49.304;8.428;2023-08-12T14:25:04;26.10;99.90
46037;DHT22;31769;49.304;8.428;2023-08-12T14:28:05;26.00;99.90
46037;DHT22;31769;49.304;8.428;2023-08-12T14:31:06;25.90;99.90
46037;DHT22;31769;49.304;8.428;2023-08-12T14:34:07;25.70;99.90
46037;DHT22;31769;49.304;8.428;2023-08-12T14:37:07;25.60;99.90
46037;DHT22;31769;49.304;8.428;2023-08-12T14:40:08;25.50;99.90
46037;DHT22;31769;49.304;8.428;2023-08-12T14:43:10;25.40;99.90
46037;DHT22;31769;49.304;8.428;2023-08-12T14:46:10;25.30;99.90
46037;DHT22;31769;49.304;8.428;2023-08-12T14:49:11;25.30;99.90
46037;DHT22;31769;49.304;8.428;2023-08-12T14:52:16;25.30;99.90
46037;DHT22;31769;49.304;8.428;2023-08-12T14:55:17;25.20;99.90
46037;DHT22;31769;49.304;8.428;2023-08-12T14:58:18;25.20;99.90
46037;DHT22;31769;49.304;8.428;2023-08-12T15:01:18;25.30;99.90
46037;DHT22;31769;49.304;8.428;2023-08-12T15:04:19;25.30;99.90
46037;DHT22;31769;49.304;8.428;2023-08-12T15:07:20;25.10;99.90
46037;DHT22;31769;49.304;8.428;2023-08-12T15:10:22;25.20;99.90
46037;DHT22;31769;49.304;8.428;2023-08-12T15:13:23;25.20;99.90
46037;DHT22;31769;49.304;8.428;2023-08-12T15:16:24;25.50;99.90
46037;DHT22;31769;49.304;8.428;2023-08-12T15:19:25;25.80;99.90
46037;DHT22;31769;49.304;8.428;2023-08-12T15:22:25;25.90;99.90
46037;DHT22;31769;49.304;8.428;2023-08-12T15:25:27;26.00;99.90
46037;DHT22;31769;49.304;8.428;2023-08-12T15:28:28;25.70;99.90
46037;DHT22;31769;49.304;8.428;2023-08-12T15:31:29;25.50;99.90
46037;DHT22;31769;49.304;8.428;2023-08-12T15:34:30;25.30;99.90
46037;DHT22;31769;49.304;8.428;2023-08-12T15:37:31;25.20;99.90
46037;DHT22;31769;49.304;8.428;2023-08-12T15:40:31;25.10;99.90
46037;DHT22;31769;49.304;8.428;2023-08-12T15:43:32;24.90;99.90
46037;DHT22;31769;49.304;8.428;2023-08-12T15:46:33;24.80;99.90
46037;DHT22;31769;49.304;8.428;2023-08-12T15:49:33;24.80;99.90
46037;DHT22;31769;49.304;8.428;2023-08-12T15:52:34;24.60;99.90
46037;DHT22;31769;49.304;8.428;2023-08-12T15:55:35;24.50;99.90
46037;DHT22;31769;49.304;8.428;2023-08-12T15:58:36;24.60;99.90
46037;DHT22;31769;49.304;8.428;2023-08-12T16:01:37;24.40;99.90
46037;DHT22;31769;49.304;8.428;2023-08-12T16:04:37;24.30;99.90
46037;DHT22;31769;49.304;8.428;2023-08-12T16:07:38;24.20;99.90
46037;DHT22;31769;49.304;8.428;2023-08-12T16:10:39;24.10;99.90
46037;DHT22;31769;49.304;8.428;2023-08-12T16:13:39;24.10;99.90
46037;DHT22;31769;49.304;8.428;2023-08-12T16:16:40;24.00;99.90
46037;DHT22;31769;49.304;8.428;2023-08-12T16:19:41;24.00;99.90
46037;DHT22;31769;49.304;8.428;2023-08-12T16:22:45;24.20;99.90
46037;DHT22;31769;49.304;8.428;2023-08-12T16:25:46;24.40;99.90
46037;DHT22;31769;49.304;8.428;2023-08-12T16:28:47;24.70;99.90
46037;DHT22;31769;49.304;8.428;2023-08-12T16:31:48;25.20;99.90
46037;DHT22;31769;49.304;8.428;2023-08-12T16:34:48;27.90;99.90
46037;DHT22;31769;49.304;8.428;2023-08-12T16:37:49;28.30;99.90
46037;DHT22;31769;49.304;8.428;2023-08-12T16:40:50;27.90;99.90
46037;DHT22;31769;49.304;8.428;2023-08-12T16:43:51;27.00;99.90
46037;DHT22;31769;49.304;8.428;2023-08-12T16:46:52;26.10;99.90
46037;DHT22;31769;49.304;8.428;2023-08-12T16:49:52;25.70;99.90
46037;DHT22;31769;49.304;8.428;2023-08-12T16:52:53;25.30;99.90
46037;DHT22;31769;49.304;8.428;2023-08-12T16:55:54;25.00;99.90
46037;DHT22;31769;49.304;8.428;2023-08-12T16:58:54;24.90;99.90
46037;DHT22;31769;49.304;8.428;2023-08-12T17:01:55;24.80;99.90
46037;DHT22;31769;49.304;8.428;2023-08-12T17:04:56;24.70;99.90
46037;DHT22;31769;49.304;8.428;2023-08-12T17:07:57;24.60;99.90
46037;DHT22;31769;49.304;8.428;2023-08-12T17:10:58;24.60;99.90
46037;DHT22;31769;49.304;8.428;2023-08-12T17:13:58;24.50;99.90
46037;DHT22;31769;49.304;8.428;2023-08-12T17:16:59;24.50;99.90
46037;DHT22;31769;49.304;8.428;2023-08-12T17:20:00;24.60;99.90
46037;DHT22;31769;49.304;8.428;2023-08-12T17:23:02;24.90;99.90
46037;DHT22;31769;49.304;8.428;2023-08-12T17:26:03;25.10;99.90
46037;DHT22;31769;49.304;8.428;2023-08-12T17:29:04;25.00;99.90
46037;DHT22;31769;49.304;8.428;2023-08-12T17:32:05;24.80;99.90
46037;DHT22;31769;49.304;8.428;2023-08-12T17:35:06;24.60;99.90
46037;DHT22;31769;49.304;8.428;2023-08-12T17:38:07;24.40;99.90
46037;DHT22;31769;49.304;8.428;2023-08-12T17:41:08;24.20;99.90
46037;DHT22;31769;49.304;8.428;2023-08-12T17:44:10;24.10;99.90
46037;DHT22;31769;49.304;8.428;2023-08-12T17:47:11;23.90;99.90
46037;DHT22;31769;49.304;8.428;2023-08-12T17:50:12;23.80;99.90
46037;DHT22;31769;49.304;8.428;2023-08-12T17:53:13;23.60;99.90
46037;DHT22;31769;49.304;8.428;2023-08-12T17:56:14;23.60;99.90
46037;DHT22;31769;49.304;8.428;2023-08-12T17:59:16;23.50;99.90
46037;DHT22;31769;49.304;8.428;2023-08-12T18:02:16;23.50;99.90
46037;DHT22;31769;49.304;8.428;2023-08-12T18:05:17;23.50;99.90
46037;DHT22;31769;49.304;8.428;2023-08-12T18:08:18;23.40;99.90
46037;DHT22;31769;49.304;8.428;2023-08-12T18:11:18;23.40;99.90
46037;DHT22;31769;49.304;8.428;2023-08-12T18:14:20;23.40;99.90
46037;DHT22;31769;49.304;8.428;2023-08-12T18:17:21;23.30;99.90
46037;DHT22;31769;49.304;8.428;2023-08-12T18:20:24;23.00;99.90
46037;DHT22;31769;49.304;8.428;2023-08-12T18:23:25;22.80;99.90
46037;DHT22;31769;49.304;8.428;2023-08-12T18:26:25;22.70;99.90
46037;DHT22;31769;49.304;8.428;2023-08-12T18:29:26;22.60;99.90
46037;DHT22;31769;49.304;8.428;2023-08-12T18:32:27;22.50;99.90
46037;DHT22;31769;49.304;8.428;2023-08-12T18:35:32;22.40;99.90
46037;DHT22;31769;49.304;8.428;2023-08-12T18:38:43;22.30;99.90
46037;DHT22;31769;49.304;8.428;2023-08-12T18:41:46;22.30;99.90
46037;DHT22;31769;49.304;8.428;2023-08-12T18:44:46;22.20;99.90
46037;DHT22;31769;49.304;8.428;2023-08-12T18:47:47;22.20;99.90
46037;DHT22;31769;49.304;8.428;2023-08-12T18:50:48;22.30;99.90
46037;DHT22;31769;49.304;8.428;2023-08-12T18:53:48;22.30;99.90
46037;DHT22;31769;49.304;8.428;2023-08-12T18:56:49;22.30;99.90
46037;DHT22;31769;49.304;8.428;2023-08-12T18:59:50;22.20;99.90
46037;DHT22;31769;49.304;8.428;2023-08-12T19:02:51;22.20;99.90
46037;DHT22;31769;49.304;8.428;2023-08-12T19:05:59;22.20;99.90
46037;DHT22;31769;49.304;8.428;2023-08-12T19:09:00;22.10;99.90